Time;durP1;ratioP1;P1;durP2;ratioP2;P2;SDS_P1;SDS_P2;PMS_P1;PMS_P2;Temp;Humidity;BMP_temperature;BMP_pressure;BME280_temperature;BME280_humidity;BME280_pressure;Samples;Min_cycle;Max_cycle;Signal;HPM_P1;HPM_P2
2021/05/19 00:00:29;;;;;;;2.28;1.30;;;;;;;;;;1480651;40;20374;-66
2021/05/19 00:01:30;;;;;;;2.20;1.30;;;;;;;;;;1480809;40;20025;-66
2021/05/19 00:02:31;;;;;;;3.35;1.58;;;;;;;;;;1480702;40;20029;-66
2021/05/19 00:03:32;;;;;;;3.10;1.45;;;;;;;;;;1480774;40;20028;-66
2021/05/19 00:04:33;;;;;;;1.90;1.23;;;;;;;;;;1480620;40;20138;-66
2021/05/19 00:05:34;;;;;;;2.08;1.25;;;;;;;;;;1480732;40;20041;-66
2021/05/19 00:06:36;;;;;;;2.80;1.63;;;;;;;;;;1480688;40;20107;-66
2021/05/19 00:07:37;;;;;;;2.67;1.30;;;;;;;;;;1480765;40;20025;-66
2021/05/19 00:08:40;;;;;;;3.28;1.45;;;;;;;;;;1480909;40;20265;-66
2021/05/19 00:09:40;;;;;;;2.08;1.10;;;;;;;;;;1480765;40;20029;-66
2021/05/19 00:10:42;;;;;;;2.80;1.20;;;;;;;;;;1480652;40;20119;-66
2021/05/19 00:11:45;;;;;;;3.60;1.50;;;;;;;;;;1480601;40;20290;-66
2021/05/19 00:12:46;;;;;;;3.15;1.33;;;;;;;;;;1480765;40;20040;-66
2021/05/19 00:13:47;;;;;;;2.50;1.20;;;;;;;;;;1480693;40;20076;-66
2021/05/19 00:14:49;;;;;;;3.40;1.48;;;;;;;;;;1480707;40;20033;-66
2021/05/19 00:15:50;;;;;;;2.42;1.40;;;;;;;;;;1480647;40;20393;-66
2021/05/19 00:16:51;;;;;;;2.80;1.67;;;;;;;;;;1480754;40;20053;-66
2021/05/19 00:17:52;;;;;;;2.08;1.17;;;;;;;;;;1480558;40;20074;-66
2021/05/19 00:18:53;;;;;;;2.33;1.10;;;;;;;;;;1480573;40;20451;-66
2021/05/19 00:19:54;;;;;;;1.85;1.20;;;;;;;;;;1480748;40;20029;-66
2021/05/19 00:20:55;;;;;;;2.03;1.10;;;;;;;;;;1480763;40;20033;-66
2021/05/19 00:21:56;;;;;;;2.60;1.40;;;;;;;;;;1480613;40;20086;-66
2021/05/19 00:22:57;;;;;;;2.63;1.20;;;;;;;;;;1480556;40;20462;-66
2021/05/19 00:23:59;;;;;;;3.08;1.40;;;;;;;;;;1480536;40;20300;-66
2021/05/19 00:25:00;;;;;;;2.00;1.20;;;;;;;;;;1480577;40;20029;-66
2021/05/19 00:26:03;;;;;;;2.42;1.10;;;;;;;;;;1480500;40;20087;-66
2021/05/19 00:27:04;;;;;;;3.72;1.23;;;;;;;;;;1480501;40;20025;-66
2021/05/19 00:28:05;;;;;;;2.30;1.20;;;;;;;;;;1480782;40;20041;-66
2021/05/19 00:29:09;;;;;;;3.78;1.42;;;;;;;;;;1480739;40;20078;-66
2021/05/19 00:30:16;;;;;;;1.90;1.20;;;;;;;;;;1480764;40;20029;-66
2021/05/19 00:31:19;;;;;;;3.08;1.10;;;;;;;;;;1480575;40;20385;-66
2021/05/19 00:32:20;;;;;;;1.42;0.80;;;;;;;;;;1480482;40;20036;-66
2021/05/19 00:33:21;;;;;;;2.75;1.17;;;;;;;;;;1480745;40;20033;-66
2021/05/19 00:34:23;;;;;;;2.30;1.15;;;;;;;;;;1480472;40;20056;-66
2021/05/19 00:35:23;;;;;;;2.10;1.30;;;;;;;;;;1480476;40;20029;-66
2021/05/19 00:36:31;;;;;;;2.83;1.10;;;;;;;;;;1480752;40;20048;-66
2021/05/19 00:37:32;;;;;;;2.08;1.30;;;;;;;;;;1480698;40;20033;-66
2021/05/19 00:38:33;;;;;;;1.83;0.95;;;;;;;;;;1480750;40;20094;-66
2021/05/19 00:39:35;;;;;;;2.45;1.00;;;;;;;;;;1480598;40;20482;-66
2021/05/19 00:40:36;;;;;;;2.08;1.25;;;;;;;;;;1480541;40;20037;-66
2021/05/19 00:41:39;;;;;;;2.03;0.98;;;;;;;;;;1480539;40;20411;-66
2021/05/19 00:42:40;;;;;;;5.30;1.23;;;;;;;;;;1480525;40;20029;-66
2021/05/19 00:43:41;;;;;;;2.63;1.00;;;;;;;;;;1480709;40;20052;-66
2021/05/19 00:44:43;;;;;;;2.38;1.00;;;;;;;;;;1480736;40;20073;-66
2021/05/19 00:45:43;;;;;;;2.75;0.90;;;;;;;;;;1480496;40;20138;-66
2021/05/19 00:46:46;;;;;;;2.10;1.10;;;;;;;;;;1480529;40;20049;-66
2021/05/19 00:47:47;;;;;;;2.53;1.27;;;;;;;;;;1480524;40;20025;-66
2021/05/19 00:48:48;;;;;;;1.95;1.30;;;;;;;;;;1480527;40;20111;-66
2021/05/19 00:49:49;;;;;;;1.98;1.10;;;;;;;;;;1480463;40;20401;-66
2021/05/19 00:50:51;;;;;;;2.70;1.00;;;;;;;;;;1480732;40;20040;-66
2021/05/19 00:51:57;;;;;;;2.10;0.98;;;;;;;;;;1480654;40;20037;-66
2021/05/19 00:52:59;;;;;;;1.60;1.13;;;;;;;;;;1480672;40;20380;-66
2021/05/19 00:54:00;;;;;;;2.40;1.15;;;;;;;;;;1480641;40;20033;-66
2021/05/19 00:55:03;;;;;;;1.50;1.05;;;;;;;;;;1480673;40;20033;-66
2021/05/19 00:56:04;;;;;;;1.75;1.00;;;;;;;;;;1480620;40;20025;-66
2021/05/19 00:57:06;;;;;;;1.67;0.95;;;;;;;;;;1480519;40;20086;-66
2021/05/19 00:58:07;;;;;;;1.52;0.80;;;;;;;;;;1480494;40;20399;-66
2021/05/19 00:59:11;;;;;;;2.63;1.10;;;;;;;;;;1480486;40;20029;-66
2021/05/19 01:00:15;;;;;;;2.30;1.10;;;;;;;;;;1480453;40;20396;-66
2021/05/19 01:01:16;;;;;;;2.28;1.00;;;;;;;;;;1480640;40;20114;-66
2021/05/19 01:02:17;;;;;;;1.17;0.82;;;;;;;;;;1480584;40;20029;-66
2021/05/19 01:03:18;;;;;;;2.97;1.00;;;;;;;;;;1480514;40;20377;-66
2021/05/19 01:04:19;;;;;;;2.17;1.00;;;;;;;;;;1480628;40;20030;-66
2021/05/19 01:05:26;;;;;;;1.30;0.80;;;;;;;;;;1480507;40;20032;-66
2021/05/19 01:06:33;;;;;;;1.60;0.90;;;;;;;;;;1480504;40;20308;-66
2021/05/19 01:07:35;;;;;;;1.60;0.90;;;;;;;;;;1480491;40;20367;-66
2021/05/19 01:09:55;;;;;;;1.50;0.90;;;;;;;;;;1480653;40;20021;-66
2021/05/19 01:11:05;;;;;;;2.45;1.00;;;;;;;;;;1480622;40;20324;-66
2021/05/19 01:12:10;;;;;;;2.03;0.95;;;;;;;;;;1480523;40;20028;-66
2021/05/19 01:13:11;;;;;;;1.90;0.90;;;;;;;;;;1480458;40;20381;-66
2021/05/19 01:14:12;;;;;;;1.92;0.75;;;;;;;;;;1480438;40;20380;-66
2021/05/19 01:15:15;;;;;;;2.22;0.90;;;;;;;;;;1480637;40;20033;-66
2021/05/19 01:16:16;;;;;;;2.80;1.20;;;;;;;;;;1515771;22;20125;-62
2021/05/19 01:17:18;;;;;;;1.55;0.73;;;;;;;;;;1480706;40;20029;-62
2021/05/19 01:18:19;;;;;;;1.90;0.90;;;;;;;;;;1480508;40;20384;-62
2021/05/19 01:19:22;;;;;;;1.67;0.88;;;;;;;;;;1480554;40;20041;-62
2021/05/19 01:20:23;;;;;;;2.72;1.00;;;;;;;;;;1480391;40;20025;-62
2021/05/19 01:21:26;;;;;;;2.10;1.00;;;;;;;;;;1480584;40;20036;-62
2021/05/19 01:22:29;;;;;;;1.73;0.80;;;;;;;;;;1480581;40;20029;-62
2021/05/19 01:23:32;;;;;;;2.42;1.00;;;;;;;;;;1480449;40;20373;-62
2021/05/19 01:24:33;;;;;;;1.58;0.80;;;;;;;;;;1480589;40;20029;-63
2021/05/19 01:25:36;;;;;;;1.60;0.82;;;;;;;;;;1480692;40;20037;-62
2021/05/19 01:26:36;;;;;;;1.55;0.90;;;;;;;;;;1480343;40;20041;-62
2021/05/19 01:27:38;;;;;;;2.65;0.82;;;;;;;;;;1480621;40;20029;-63
2021/05/19 01:28:40;;;;;;;1.25;0.73;;;;;;;;;;1479972;40;20029;-62
2021/05/19 01:29:41;;;;;;;1.17;0.70;;;;;;;;;;1480143;40;20114;-63
2021/05/19 01:30:42;;;;;;;2.60;0.88;;;;;;;;;;1480550;40;20025;-62
2021/05/19 01:31:46;;;;;;;1.73;0.82;;;;;;;;;;1480620;40;20284;-62
2021/05/19 01:32:48;;;;;;;2.17;0.85;;;;;;;;;;1480414;40;20396;-62
2021/05/19 01:33:49;;;;;;;2.28;1.13;;;;;;;;;;1480515;40;20037;-62
2021/05/19 01:34:50;;;;;;;1.83;0.80;;;;;;;;;;1480362;40;20067;-62
2021/05/19 01:35:51;;;;;;;1.60;0.90;;;;;;;;;;1480342;40;20033;-62
2021/05/19 01:36:52;;;;;;;1.85;1.02;;;;;;;;;;1479985;40;20029;-63
2021/05/19 01:37:55;;;;;;;2.67;0.85;;;;;;;;;;1480613;40;20033;-62
2021/05/19 01:38:55;;;;;;;1.73;1.00;;;;;;;;;;1480355;40;20084;-62
2021/05/19 01:39:57;;;;;;;2.17;0.65;;;;;;;;;;1480381;40;20040;-62
2021/05/19 01:40:58;;;;;;;1.33;0.70;;;;;;;;;;1480372;40;20029;-62
2021/05/19 01:41:59;;;;;;;1.65;0.95;;;;;;;;;;1480355;40;20029;-63
2021/05/19 01:43:00;;;;;;;2.17;0.73;;;;;;;;;;1480500;40;20032;-62
2021/05/19 01:44:09;;;;;;;1.98;0.80;;;;;;;;;;1480440;40;20296;-62
2021/05/19 01:45:11;;;;;;;1.95;0.77;;;;;;;;;;1480630;40;20041;-62
2021/05/19 01:46:13;;;;;;;1.70;0.80;;;;;;;;;;1479902;40;20049;-62
2021/05/19 01:47:14;;;;;;;3.30;0.80;;;;;;;;;;1479862;40;20477;-62
2021/05/19 01:48:18;;;;;;;1.85;0.88;;;;;;;;;;1480379;40;20103;-62
2021/05/19 01:49:22;;;;;;;1.55;0.70;;;;;;;;;;1480302;40;20411;-62
2021/05/19 01:50:25;;;;;;;1.63;0.73;;;;;;;;;;1480568;40;20029;-62
2021/05/19 01:51:26;;;;;;;1.83;1.10;;;;;;;;;;1480542;40;20119;-62
2021/05/19 01:52:27;;;;;;;2.08;1.00;;;;;;;;;;1480324;40;20040;-63
2021/05/19 01:53:32;;;;;;;3.05;0.90;;;;;;;;;;1480501;40;20127;-63
2021/05/19 01:54:34;;;;;;;2.72;1.17;;;;;;;;;;1480316;40;20376;-62
2021/05/19 01:55:36;;;;;;;1.30;0.70;;;;;;;;;;1480504;40;20117;-62
2021/05/19 01:56:38;;;;;;;1.27;0.90;;;;;;;;;;1480295;40;20046;-62
2021/05/19 01:57:42;;;;;;;3.38;1.10;;;;;;;;;;1480385;40;20040;-62
2021/05/19 01:58:43;;;;;;;1.40;0.80;;;;;;;;;;1480525;40;20045;-62
2021/05/19 01:59:44;;;;;;;2.63;0.80;;;;;;;;;;1480326;40;20067;-62
2021/05/19 02:00:46;;;;;;;1.30;0.75;;;;;;;;;;1480529;40;20029;-62
2021/05/19 02:01:47;;;;;;;2.15;0.90;;;;;;;;;;1480484;40;20047;-62
2021/05/19 02:02:55;;;;;;;2.50;1.10;;;;;;;;;;1480490;40;20295;-63
2021/05/19 02:04:07;;;;;;;2.22;0.80;;;;;;;;;;1480475;40;20033;-63
2021/05/19 02:05:12;;;;;;;1.30;0.80;;;;;;;;;;1480476;40;20118;-62
2021/05/19 02:06:13;;;;;;;1.50;0.75;;;;;;;;;;1480467;40;20119;-62
2021/05/19 02:07:14;;;;;;;3.50;1.15;;;;;;;;;;1480346;40;20036;-62
2021/05/19 02:08:15;;;;;;;2.03;0.82;;;;;;;;;;1480338;40;20036;-62
2021/05/19 02:09:20;;;;;;;1.65;0.77;;;;;;;;;;1480270;40;20063;-62
2021/05/19 02:10:22;;;;;;;1.42;0.90;;;;;;;;;;1480385;40;20048;-63
2021/05/19 02:11:23;;;;;;;1.45;0.82;;;;;;;;;;1480469;40;20118;-62
2021/05/19 02:12:25;;;;;;;2.60;0.90;;;;;;;;;;1480284;40;20340;-62
2021/05/19 02:13:25;;;;;;;1.38;0.80;;;;;;;;;;1480472;40;20033;-62
2021/05/19 02:14:27;;;;;;;2.28;0.90;;;;;;;;;;1479746;40;20292;-63
2021/05/19 02:15:28;;;;;;;2.45;0.98;;;;;;;;;;1479805;40;20025;-62
2021/05/19 02:16:29;;;;;;;1.40;0.80;;;;;;;;;;1480452;40;20053;-62
2021/05/19 02:17:30;;;;;;;1.98;0.85;;;;;;;;;;1480230;40;20393;-62
2021/05/19 02:18:32;;;;;;;1.60;0.80;;;;;;;;;;1480420;40;20029;-62
2021/05/19 02:19:33;;;;;;;1.80;0.80;;;;;;;;;;1480412;40;20036;-62
2021/05/19 02:20:35;;;;;;;2.13;1.00;;;;;;;;;;1480471;40;20125;-62
2021/05/19 02:21:39;;;;;;;1.40;0.82;;;;;;;;;;1480291;40;20028;-62
2021/05/19 02:22:42;;;;;;;2.35;0.80;;;;;;;;;;1480478;40;20036;-62
2021/05/19 02:23:42;;;;;;;1.90;0.90;;;;;;;;;;1480238;40;20374;-63
2021/05/19 02:24:45;;;;;;;1.75;1.00;;;;;;;;;;1480204;40;20103;-62
2021/05/19 02:25:45;;;;;;;3.17;1.02;;;;;;;;;;1480159;40;20073;-62
2021/05/19 02:26:47;;;;;;;2.33;0.90;;;;;;;;;;1480354;40;20030;-62
2021/05/19 02:27:49;;;;;;;1.67;1.00;;;;;;;;;;1480372;40;20029;-62
2021/05/19 02:28:50;;;;;;;1.40;0.80;;;;;;;;;;1480427;40;20144;-62
2021/05/19 02:29:53;;;;;;;2.35;0.90;;;;;;;;;;1480241;40;20296;-62
2021/05/19 02:30:54;;;;;;;1.65;0.90;;;;;;;;;;1480214;40;20042;-62
2021/05/19 02:31:55;;;;;;;1.80;0.95;;;;;;;;;;1480163;40;20040;-62
2021/05/19 02:32:56;;;;;;;1.92;1.00;;;;;;;;;;1480396;40;20044;-62
2021/05/19 02:33:57;;;;;;;2.67;1.02;;;;;;;;;;1480167;40;20041;-62
2021/05/19 02:34:59;;;;;;;1.80;0.90;;;;;;;;;;1480232;40;20045;-63
2021/05/19 02:36:00;;;;;;;2.28;1.10;;;;;;;;;;1480199;40;20270;-62
2021/05/19 02:37:01;;;;;;;2.08;1.10;;;;;;;;;;1480366;40;20129;-62
2021/05/19 02:38:02;;;;;;;1.77;1.00;;;;;;;;;;1480146;40;20033;-63
2021/05/19 02:39:05;;;;;;;1.73;0.80;;;;;;;;;;1480386;40;20029;-63
2021/05/19 02:40:11;;;;;;;2.10;1.00;;;;;;;;;;1480133;40;20033;-62
2021/05/19 02:41:12;;;;;;;1.88;0.90;;;;;;;;;;1480400;40;20037;-62
2021/05/19 02:42:13;;;;;;;2.42;1.10;;;;;;;;;;1480374;40;20029;-62
2021/05/19 02:43:15;;;;;;;1.90;1.00;;;;;;;;;;1480242;40;20029;-63
2021/05/19 02:44:16;;;;;;;2.13;1.00;;;;;;;;;;1480382;40;20029;-63
2021/05/19 02:45:17;;;;;;;1.73;0.90;;;;;;;;;;1480225;40;20036;-62
2021/05/19 02:46:18;;;;;;;1.80;0.90;;;;;;;;;;1480249;40;20037;-62
2021/05/19 02:47:20;;;;;;;1.45;0.90;;;;;;;;;;1480397;40;20041;-63
2021/05/19 02:48:20;;;;;;;3.05;0.98;;;;;;;;;;1480745;40;20021;-63
2021/05/19 02:49:22;;;;;;;1.90;1.00;;;;;;;;;;1480844;40;20029;-63
2021/05/19 02:50:23;;;;;;;3.70;1.17;;;;;;;;;;1480970;40;20032;-62
2021/05/19 02:51:24;;;;;;;1.88;1.05;;;;;;;;;;1480936;40;20052;-62
2021/05/19 02:52:25;;;;;;;3.35;1.10;;;;;;;;;;1480832;40;20384;-62
2021/05/19 02:53:26;;;;;;;2.55;1.08;;;;;;;;;;1480914;40;20021;-62
2021/05/19 02:54:27;;;;;;;2.15;1.17;;;;;;;;;;1480920;40;20040;-63
2021/05/19 02:55:31;;;;;;;2.20;1.00;;;;;;;;;;1480244;40;20061;-63
2021/05/19 02:56:32;;;;;;;1.70;1.10;;;;;;;;;;1480287;40;20037;-62
2021/05/19 02:57:34;;;;;;;1.45;0.88;;;;;;;;;;1480943;40;20033;-62
2021/05/19 02:58:35;;;;;;;1.90;1.10;;;;;;;;;;1480744;40;20029;-62
2021/05/19 02:59:36;;;;;;;2.70;1.17;;;;;;;;;;1480785;40;20033;-63
2021/05/19 03:00:37;;;;;;;2.28;1.10;;;;;;;;;;1480780;40;20404;-63
2021/05/19 03:01:38;;;;;;;2.83;1.02;;;;;;;;;;1480946;40;20040;-62
2021/05/19 03:02:39;;;;;;;2.22;1.33;;;;;;;;;;1480925;40;20036;-63
2021/05/19 03:03:41;;;;;;;2.75;1.02;;;;;;;;;;1480827;40;20060;-63
2021/05/19 03:04:41;;;;;;;1.73;1.00;;;;;;;;;;1480754;40;20026;-62
2021/05/19 03:05:43;;;;;;;3.58;1.27;;;;;;;;;;1480906;40;20029;-62
2021/05/19 03:06:44;;;;;;;2.15;1.13;;;;;;;;;;1480968;40;20040;-62
2021/05/19 03:07:46;;;;;;;3.22;1.30;;;;;;;;;;1480795;40;20249;-62
2021/05/19 03:08:46;;;;;;;2.03;1.10;;;;;;;;;;1480766;40;20292;-62
2021/05/19 03:09:48;;;;;;;2.03;1.08;;;;;;;;;;1480960;40;20044;-62
2021/05/19 03:10:49;;;;;;;1.73;1.10;;;;;;;;;;1480757;40;20037;-62
2021/05/19 03:11:51;;;;;;;3.25;1.10;;;;;;;;;;1480739;40;20029;-62
2021/05/19 03:12:52;;;;;;;2.45;1.20;;;;;;;;;;1480709;40;20033;-63
2021/05/19 03:13:53;;;;;;;3.00;1.15;;;;;;;;;;1480856;40;20037;-62
2021/05/19 03:14:55;;;;;;;1.65;1.10;;;;;;;;;;1480826;40;20040;-62
2021/05/19 03:15:57;;;;;;;1.90;1.02;;;;;;;;;;1480621;40;20033;-63
2021/05/19 03:17:01;;;;;;;2.50;1.15;;;;;;;;;;1480703;40;20033;-62
2021/05/19 03:18:03;;;;;;;2.17;1.20;;;;;;;;;;1480726;40;20040;-62
2021/05/19 03:19:04;;;;;;;2.10;1.20;;;;;;;;;;1480719;40;20036;-62
2021/05/19 03:20:07;;;;;;;3.65;1.60;;;;;;;;;;1480747;40;20376;-63
2021/05/19 03:21:08;;;;;;;2.58;1.10;;;;;;;;;;1480877;40;20114;-62
2021/05/19 03:22:10;;;;;;;2.00;1.10;;;;;;;;;;1480928;40;20045;-62
2021/05/19 03:23:10;;;;;;;3.55;1.27;;;;;;;;;;1480685;40;20388;-62
2021/05/19 03:24:12;;;;;;;1.95;1.30;;;;;;;;;;1480886;40;20119;-62
2021/05/19 03:25:13;;;;;;;2.60;1.20;;;;;;;;;;1480885;40;20037;-63
2021/05/19 03:26:16;;;;;;;2.35;1.30;;;;;;;;;;1480681;40;20436;-63
2021/05/19 03:27:16;;;;;;;2.53;1.05;;;;;;;;;;1480834;40;20025;-62
2021/05/19 03:28:18;;;;;;;1.98;1.15;;;;;;;;;;1480684;40;20029;-62
2021/05/19 03:29:19;;;;;;;2.03;1.20;;;;;;;;;;1480914;40;20037;-62
2021/05/19 03:30:21;;;;;;;2.53;1.20;;;;;;;;;;1480791;40;20300;-63
2021/05/19 03:31:22;;;;;;;2.20;1.30;;;;;;;;;;1480639;40;20025;-62
2021/05/19 03:32:23;;;;;;;2.10;1.27;;;;;;;;;;1480743;40;20389;-63
2021/05/19 03:33:24;;;;;;;3.20;1.17;;;;;;;;;;1480870;40;20068;-62
2021/05/19 03:34:25;;;;;;;3.42;1.40;;;;;;;;;;1480659;40;20041;-62
2021/05/19 03:35:26;;;;;;;2.53;1.30;;;;;;;;;;1480852;40;20033;-63
2021/05/19 03:36:27;;;;;;;2.22;1.30;;;;;;;;;;1480739;40;20439;-62
2021/05/19 03:37:29;;;;;;;3.05;1.40;;;;;;;;;;1480922;40;20037;-62
2021/05/19 03:38:31;;;;;;;2.55;1.27;;;;;;;;;;1480902;40;20281;-63
2021/05/19 03:39:32;;;;;;;3.42;1.48;;;;;;;;;;1480826;40;20036;-62
2021/05/19 03:40:33;;;;;;;3.22;1.40;;;;;;;;;;1480663;40;20048;-62
2021/05/19 03:41:36;;;;;;;2.58;1.30;;;;;;;;;;1480688;40;20126;-62
2021/05/19 03:42:37;;;;;;;2.58;1.30;;;;;;;;;;1480778;40;20034;-62
2021/05/19 03:43:38;;;;;;;2.72;1.48;;;;;;;;;;1480844;40;20048;-62
2021/05/19 03:44:39;;;;;;;2.50;1.45;;;;;;;;;;1480663;40;20296;-62
2021/05/19 03:45:40;;;;;;;2.75;1.40;;;;;;;;;;1480837;40;20029;-63
2021/05/19 03:46:42;;;;;;;3.50;1.20;;;;;;;;;;1480636;40;20064;-62
2021/05/19 03:47:44;;;;;;;3.50;1.35;;;;;;;;;;1480617;40;20025;-62
2021/05/19 03:48:48;;;;;;;4.50;1.50;;;;;;;;;;1480829;40;20065;-62
2021/05/19 03:49:50;;;;;;;3.28;1.50;;;;;;;;;;1480854;40;20033;-62
2021/05/19 03:50:51;;;;;;;2.22;1.20;;;;;;;;;;1480873;40;20025;-63
2021/05/19 03:51:53;;;;;;;2.58;1.30;;;;;;;;;;1480608;40;20256;-62
2021/05/19 03:52:55;;;;;;;2.50;1.50;;;;;;;;;;1480860;40;20073;-62
2021/05/19 03:53:56;;;;;;;2.65;1.48;;;;;;;;;;1480763;40;20037;-62
2021/05/19 03:54:57;;;;;;;2.60;1.23;;;;;;;;;;1480752;40;20033;-63
2021/05/19 03:55:58;;;;;;;2.60;1.45;;;;;;;;;;1480764;40;20033;-62
2021/05/19 03:57:01;;;;;;;2.42;1.30;;;;;;;;;;1480807;40;20039;-63
2021/05/19 03:58:02;;;;;;;3.20;1.60;;;;;;;;;;1480272;40;20032;-62
2021/05/19 03:59:04;;;;;;;3.97;1.77;;;;;;;;;;1480323;40;20037;-62
2021/05/19 04:00:07;;;;;;;3.10;1.60;;;;;;;;;;1480523;40;20025;-62
2021/05/19 04:01:09;;;;;;;2.97;1.40;;;;;;;;;;1480641;40;20486;-62
2021/05/19 04:02:10;;;;;;;3.00;1.92;;;;;;;;;;1480763;40;20060;-63
2021/05/19 04:03:11;;;;;;;4.05;1.75;;;;;;;;;;1480610;40;20068;-62
2021/05/19 04:04:12;;;;;;;3.08;1.60;;;;;;;;;;1480953;40;20065;-62
2021/05/19 04:05:14;;;;;;;2.90;1.40;;;;;;;;;;1480631;40;20299;-62
2021/05/19 04:06:15;;;;;;;3.65;1.70;;;;;;;;;;1480605;40;20029;-62
2021/05/19 04:07:16;;;;;;;3.95;1.88;;;;;;;;;;1480815;40;20033;-62
2021/05/19 04:08:17;;;;;;;3.17;1.80;;;;;;;;;;1480814;40;20052;-62
2021/05/19 04:09:18;;;;;;;2.97;2.05;;;;;;;;;;1480574;40;20033;-61
2021/05/19 04:10:20;;;;;;;3.15;2.22;;;;;;;;;;1480734;40;20040;-63
2021/05/19 04:11:21;;;;;;;5.10;2.15;;;;;;;;;;1480618;40;20029;-62
2021/05/19 04:12:23;;;;;;;2.60;2.10;;;;;;;;;;1480603;40;20420;-62
2021/05/19 04:13:24;;;;;;;3.13;2.00;;;;;;;;;;1480850;40;20025;-62
2021/05/19 04:14:25;;;;;;;3.72;1.98;;;;;;;;;;1480495;40;20036;-63
2021/05/19 04:15:26;;;;;;;4.13;2.05;;;;;;;;;;1480737;40;20036;-62
2021/05/19 04:16:27;;;;;;;3.22;1.83;;;;;;;;;;1480621;40;20311;-63
2021/05/19 04:17:29;;;;;;;5.00;2.05;;;;;;;;;;1480638;40;20370;-62
2021/05/19 04:18:29;;;;;;;3.63;2.30;;;;;;;;;;1480569;40;20025;-62
2021/05/19 04:19:33;;;;;;;2.78;1.83;;;;;;;;;;1480683;40;20036;-63
2021/05/19 04:20:35;;;;;;;3.47;2.20;;;;;;;;;;1480727;40;20139;-62
2021/05/19 04:21:36;;;;;;;4.10;2.47;;;;;;;;;;1480524;40;20404;-62
2021/05/19 04:22:37;;;;;;;5.15;2.42;;;;;;;;;;1480570;40;20285;-62
2021/05/19 04:23:38;;;;;;;4.00;2.17;;;;;;;;;;1480591;40;20071;-62
2021/05/19 04:24:39;;;;;;;4.18;2.30;;;;;;;;;;1480527;40;20031;-63
2021/05/19 04:25:41;;;;;;;3.13;2.65;;;;;;;;;;1480762;40;20041;-62
2021/05/19 04:26:41;;;;;;;4.32;2.40;;;;;;;;;;1480429;40;20030;-62
2021/05/19 04:27:45;;;;;;;4.55;2.58;;;;;;;;;;1480481;40;20388;-62
2021/05/19 04:28:47;;;;;;;3.63;2.20;;;;;;;;;;1480641;40;20032;-62
2021/05/19 04:29:48;;;;;;;4.88;2.72;;;;;;;;;;1480512;40;20033;-62
2021/05/19 04:30:49;;;;;;;4.18;2.30;;;;;;;;;;1480674;40;20035;-62
2021/05/19 04:31:51;;;;;;;4.00;2.60;;;;;;;;;;1480704;40;20076;-62
2021/05/19 04:32:53;;;;;;;4.32;2.72;;;;;;;;;;1480554;40;20381;-62
2021/05/19 04:33:54;;;;;;;3.85;2.70;;;;;;;;;;1480586;40;20033;-61
2021/05/19 04:34:55;;;;;;;3.10;2.47;;;;;;;;;;1480597;40;20051;-62
2021/05/19 04:35:56;;;;;;;3.75;2.33;;;;;;;;;;1480662;40;20026;-62
2021/05/19 04:36:57;;;;;;;4.28;2.58;;;;;;;;;;1480498;40;20029;-62
2021/05/19 04:37:59;;;;;;;3.00;2.22;;;;;;;;;;1480798;40;20033;-62
2021/05/19 04:39:01;;;;;;;3.53;2.72;;;;;;;;;;1480656;40;20118;-62
2021/05/19 04:40:04;;;;;;;3.97;2.75;;;;;;;;;;1480542;40;20389;-62
2021/05/19 04:41:05;;;;;;;4.90;3.00;;;;;;;;;;1480584;40;20382;-62
2021/05/19 04:42:07;;;;;;;4.10;2.70;;;;;;;;;;1480444;40;20033;-62
2021/05/19 04:43:09;;;;;;;3.17;2.30;;;;;;;;;;1480534;40;20403;-62
2021/05/19 04:44:11;;;;;;;4.75;2.92;;;;;;;;;;1480466;40;20029;-62
2021/05/19 04:45:12;;;;;;;4.03;2.97;;;;;;;;;;1480655;40;20111;-62
2021/05/19 04:46:14;;;;;;;4.80;3.22;;;;;;;;;;1480680;40;20041;-62
2021/05/19 04:47:15;;;;;;;4.07;3.13;;;;;;;;;;1480499;40;20380;-62
2021/05/19 04:48:16;;;;;;;4.38;3.28;;;;;;;;;;1480445;40;20029;-62
2021/05/19 04:49:17;;;;;;;5.07;3.10;;;;;;;;;;1480448;40;20443;-63
2021/05/19 04:50:19;;;;;;;5.85;3.33;;;;;;;;;;1480642;40;20029;-62
2021/05/19 04:51:20;;;;;;;5.90;3.15;;;;;;;;;;1480060;40;20033;-62
2021/05/19 04:52:22;;;;;;;3.88;3.28;;;;;;;;;;1475791;40;20034;-62
2021/05/19 04:53:23;;;;;;;3.45;3.10;;;;;;;;;;1479967;40;20060;-62
2021/05/19 04:54:30;;;;;;;5.43;3.53;;;;;;;;;;1480428;40;20392;-63
2021/05/19 04:55:31;;;;;;;5.00;3.25;;;;;;;;;;1480443;40;20087;-62
2021/05/19 04:56:33;;;;;;;4.90;3.42;;;;;;;;;;1480431;40;20037;-62
2021/05/19 04:57:34;;;;;;;4.20;2.97;;;;;;;;;;1480438;40;20025;-62
2021/05/19 04:58:36;;;;;;;4.00;2.72;;;;;;;;;;1480376;40;20032;-63
2021/05/19 04:59:37;;;;;;;4.00;2.80;;;;;;;;;;1480552;40;20300;-63
2021/05/19 05:00:39;;;;;;;4.03;2.65;;;;;;;;;;1480434;40;20033;-62
2021/05/19 05:01:40;;;;;;;4.30;2.60;;;;;;;;;;1480647;40;20036;-63
2021/05/19 05:02:41;;;;;;;4.20;2.60;;;;;;;;;;1480488;40;20029;-63
2021/05/19 05:03:42;;;;;;;4.43;2.83;;;;;;;;;;1480639;40;20091;-63
2021/05/19 05:04:43;;;;;;;3.20;2.55;;;;;;;;;;1480563;40;20075;-63
2021/05/19 05:05:44;;;;;;;2.83;2.38;;;;;;;;;;1480466;40;20296;-63
2021/05/19 05:06:45;;;;;;;4.18;2.85;;;;;;;;;;1480401;40;20040;-62
2021/05/19 05:07:49;;;;;;;5.00;2.92;;;;;;;;;;1479921;40;20114;-63
2021/05/19 05:08:50;;;;;;;4.47;3.25;;;;;;;;;;1480016;40;20032;-62
2021/05/19 05:09:51;;;;;;;4.32;2.80;;;;;;;;;;1480614;40;20032;-63
2021/05/19 05:10:52;;;;;;;4.00;2.83;;;;;;;;;;1480379;40;20307;-63
2021/05/19 05:11:53;;;;;;;4.07;2.80;;;;;;;;;;1480060;40;20038;-63
2021/05/19 05:12:54;;;;;;;5.30;3.30;;;;;;;;;;1480436;40;20392;-62
2021/05/19 05:13:56;;;;;;;5.13;3.33;;;;;;;;;;1480422;40;20032;-63
2021/05/19 05:14:57;;;;;;;4.47;2.95;;;;;;;;;;1480405;40;20404;-63
2021/05/19 05:15:58;;;;;;;4.82;3.38;;;;;;;;;;1480497;40;20036;-63
2021/05/19 05:16:59;;;;;;;4.28;3.28;;;;;;;;;;1480446;40;20029;-63
2021/05/19 05:18:00;;;;;;;4.90;3.40;;;;;;;;;;1479969;40;20040;-62
2021/05/19 05:19:01;;;;;;;4.82;3.40;;;;;;;;;;1480173;40;20377;-62
2021/05/19 05:20:03;;;;;;;4.95;3.47;;;;;;;;;;1480428;40;20404;-63
2021/05/19 05:21:06;;;;;;;4.45;3.40;;;;;;;;;;1480413;40;20334;-62
2021/05/19 05:22:07;;;;;;;4.38;2.88;;;;;;;;;;1479995;40;20030;-62
2021/05/19 05:23:08;;;;;;;4.05;3.15;;;;;;;;;;1480056;40;20416;-63
2021/05/19 05:24:09;;;;;;;4.22;3.10;;;;;;;;;;1480417;40;20398;-63
2021/05/19 05:25:13;;;;;;;5.50;3.15;;;;;;;;;;1480359;40;20398;-63
2021/05/19 05:26:14;;;;;;;4.85;3.30;;;;;;;;;;1480307;40;20037;-62
2021/05/19 05:27:16;;;;;;;4.82;3.35;;;;;;;;;;1480589;40;20033;-63
2021/05/19 05:28:17;;;;;;;4.47;3.20;;;;;;;;;;1480563;40;20033;-62
2021/05/19 05:29:19;;;;;;;4.35;3.22;;;;;;;;;;1480607;40;20392;-63
2021/05/19 05:30:20;;;;;;;4.53;3.15;;;;;;;;;;1480413;40;20296;-62
2021/05/19 05:31:22;;;;;;;4.60;3.35;;;;;;;;;;1480607;40;20033;-62
2021/05/19 05:32:23;;;;;;;4.10;3.53;;;;;;;;;;1480400;40;20477;-62
2021/05/19 05:33:24;;;;;;;4.80;3.70;;;;;;;;;;1480504;40;20126;-62
2021/05/19 05:34:25;;;;;;;4.60;3.70;;;;;;;;;;1480277;40;20029;-63
2021/05/19 05:35:27;;;;;;;4.72;3.55;;;;;;;;;;1480526;40;20033;-63
2021/05/19 05:36:28;;;;;;;5.00;3.97;;;;;;;;;;1480311;40;20397;-62
2021/05/19 05:37:29;;;;;;;5.32;3.70;;;;;;;;;;1480307;40;20326;-62
2021/05/19 05:38:30;;;;;;;6.03;4.03;;;;;;;;;;1480328;40;20114;-62
2021/05/19 05:39:31;;;;;;;5.82;4.15;;;;;;;;;;1480633;40;20041;-62
2021/05/19 05:40:33;;;;;;;6.03;4.20;;;;;;;;;;1480355;40;20025;-63
2021/05/19 05:41:34;;;;;;;5.78;3.53;;;;;;;;;;1480398;40;20300;-62
2021/05/19 05:42:35;;;;;;;6.00;4.05;;;;;;;;;;1479872;40;20036;-62
2021/05/19 05:43:36;;;;;;;5.90;4.53;;;;;;;;;;1479871;40;20033;-63
2021/05/19 05:44:38;;;;;;;5.97;3.92;;;;;;;;;;1480483;40;20026;-63
2021/05/19 05:45:39;;;;;;;5.13;3.75;;;;;;;;;;1480511;40;20025;-63
2021/05/19 05:46:41;;;;;;;4.85;4.05;;;;;;;;;;1480443;40;20114;-63
2021/05/19 05:47:41;;;;;;;5.18;4.20;;;;;;;;;;1480402;40;20051;-63
2021/05/19 05:48:43;;;;;;;4.85;3.83;;;;;;;;;;1480521;40;20385;-62
2021/05/19 05:49:43;;;;;;;4.85;3.40;;;;;;;;;;1480418;40;20025;-63
2021/05/19 05:50:45;;;;;;;4.15;3.58;;;;;;;;;;1480294;40;20036;-63
2021/05/19 05:51:46;;;;;;;4.90;3.33;;;;;;;;;;1480555;40;20029;-62
2021/05/19 05:52:48;;;;;;;5.47;3.53;;;;;;;;;;1480303;40;20081;-62
2021/05/19 05:53:49;;;;;;;4.15;3.33;;;;;;;;;;1480323;40;20031;-63
2021/05/19 05:54:50;;;;;;;3.95;3.55;;;;;;;;;;1480472;40;20030;-63
2021/05/19 05:55:51;;;;;;;4.30;2.90;;;;;;;;;;1480275;40;20029;-63
2021/05/19 05:56:52;;;;;;;4.15;3.60;;;;;;;;;;1480473;40;20036;-62
2021/05/19 05:57:53;;;;;;;4.03;3.08;;;;;;;;;;1480311;40;20029;-62
2021/05/19 05:58:54;;;;;;;4.07;3.33;;;;;;;;;;1480292;40;20036;-62
2021/05/19 05:59:56;;;;;;;5.10;3.30;;;;;;;;;;1480281;40;20393;-62
2021/05/19 06:00:57;;;;;;;3.90;3.20;;;;;;;;;;1480335;40;20033;-63
2021/05/19 06:01:58;;;;;;;3.88;3.28;;;;;;;;;;1480279;40;20090;-62
2021/05/19 06:02:59;;;;;;;4.32;3.10;;;;;;;;;;1480253;40;20037;-62
2021/05/19 06:04:00;;;;;;;4.40;3.35;;;;;;;;;;1480491;40;20029;-62
2021/05/19 06:05:02;;;;;;;3.78;3.13;;;;;;;;;;1480283;40;20040;-62
2021/05/19 06:06:03;;;;;;;4.90;3.40;;;;;;;;;;1480248;40;20025;-62
2021/05/19 06:07:04;;;;;;;4.72;3.35;;;;;;;;;;1480470;40;20069;-62
2021/05/19 06:08:06;;;;;;;4.97;3.30;;;;;;;;;;1480258;40;20036;-62
2021/05/19 06:09:07;;;;;;;5.05;3.30;;;;;;;;;;1480240;40;20305;-63
2021/05/19 06:10:09;;;;;;;4.80;3.33;;;;;;;;;;1480336;40;20035;-63
2021/05/19 06:11:10;;;;;;;4.13;2.97;;;;;;;;;;1480472;40;20033;-62